Time;durP1;ratioP1;P1;durP2;ratioP2;P2;SDS_P1;SDS_P2;PMS_P1;PMS_P2;Temp;Humidity;BMP_temperature;BMP_pressure;BME280_temperature;BME280_humidity;BME280_pressure;Samples;Min_cycle;Max_cycle;Signal;HPM_P1;HPM_P2
2022/06/08 00:03:13;;;;;;;;;;;;;;;15.91;58.67;100537.25;1726893;82;20551;-60
2022/06/08 00:06:21;;;;;;;;;;;;;;;15.90;58.83;100534.70;1693635;83;20252;-60
2022/06/08 00:09:25;;;;;;;;;;;;;;;15.88;58.89;100529.39;1726243;82;20194;-61
2022/06/08 00:12:31;;;;;;;;;;;;;;;15.84;58.94;100534.98;1693734;83;20212;-62
2022/06/08 00:15:35;;;;;;;;;;;;;;;15.82;58.96;100534.88;1692765;85;20527;-61
2022/06/08 00:18:41;;;;;;;;;;;;;;;15.80;59.15;100537.84;1726481;82;20182;-61
2022/06/08 00:21:47;;;;;;;;;;;;;;;15.79;59.23;100530.61;1694064;84;20204;-60
2022/06/08 00:24:51;;;;;;;;;;;;;;;15.79;59.41;100529.77;1693104;85;20193;-61
2022/06/08 00:27:57;;;;;;;;;;;;;;;15.78;59.46;100527.53;1693925;84;20188;-60
2022/06/08 00:31:01;;;;;;;;;;;;;;;15.76;59.54;100529.64;1726873;82;20201;-61
2022/06/08 00:34:08;;;;;;;;;;;;;;;15.73;59.64;100525.91;1693663;83;20192;-61
2022/06/08 00:37:12;;;;;;;;;;;;;;;15.72;59.73;100531.13;1687224;85;20625;-60
2022/06/08 00:40:18;;;;;;;;;;;;;;;15.70;59.72;100530.47;1731301;79;20225;-60
2022/06/08 00:43:22;;;;;;;;;;;;;;;15.65;59.72;100530.23;1715449;83;20230;-60
2022/06/08 00:46:26;;;;;;;;;;;;;;;15.61;59.70;100527.56;1746563;82;20243;-61
2022/06/08 00:49:35;;;;;;;;;;;;;;;15.54;59.68;100528.05;1714451;83;20238;-60
2022/06/08 00:52:40;;;;;;;;;;;;;;;15.48;59.67;100528.01;1710789;84;20505;-61
2022/06/08 00:55:45;;;;;;;;;;;;;;;15.41;59.72;100521.10;1746716;82;20245;-61
2022/06/08 00:58:52;;;;;;;;;;;;;;;15.36;59.79;100522.20;1746723;82;20292;-60
2022/06/08 01:01:55;;;;;;;;;;;;;;;15.31;59.77;100523.85;1746731;82;20557;-61
2022/06/08 01:05:31;;;;;;;;;;;;;;;15.24;59.81;100520.22;1715335;83;20285;-60
2022/06/08 01:08:39;;;;;;;;;;;;;;;15.18;59.87;100520.48;1715254;83;20361;-60
2022/06/08 01:11:49;;;;;;;;;;;;;;;15.12;59.91;100518.55;1710754;83;20208;-60
2022/06/08 01:14:57;;;;;;;;;;;;;;;15.08;60.03;100515.02;1746809;82;20226;-60
2022/06/08 01:18:03;;;;;;;;;;;;;;;15.03;60.15;100516.45;1746745;82;20269;-59
2022/06/08 01:21:31;;;;;;;;;;;;;;;14.98;60.16;100515.37;1710676;84;20525;-60
2022/06/08 01:24:38;;;;;;;;;;;;;;;14.93;60.20;100510.98;1710538;84;20196;-60
2022/06/08 01:27:55;;;;;;;;;;;;;;;14.86;60.28;100514.20;1746772;82;20241;-59
2022/06/08 01:31:07;;;;;;;;;;;;;;;14.82;60.43;100522.04;1746617;82;20226;-61
2022/06/08 01:34:35;;;;;;;;;;;;;;;14.82;60.60;100522.04;1746655;82;20249;-60
2022/06/08 01:38:02;;;;;;;;;;;;;;;14.83;60.73;100517.36;1746664;82;20534;-60
2022/06/08 01:41:31;;;;;;;;;;;;;;;14.82;60.82;100517.05;1709942;83;20196;-61
2022/06/08 01:45:37;;;;;;;;;;;;;;;14.83;60.99;100517.36;1687827;85;20190;-59
2022/06/08 01:48:04;;;;;;;;;;;;;;;14.85;61.14;100518.87;1705351;83;20625;-60
2022/06/08 01:51:31;;;;;;;;;;;;;;;14.88;61.28;100524.50;1727131;82;20201;-60
2022/06/08 01:54:47;;;;;;;;;;;;;;;14.89;61.33;100513.28;1727194;82;20526;-60
2022/06/08 01:58:07;;;;;;;;;;;;;;;14.89;61.34;100513.80;1726928;81;20226;-59
2022/06/08 02:01:22;;;;;;;;;;;;;;;14.89;61.37;100521.55;1727424;82;20201;-60
2022/06/08 02:04:42;;;;;;;;;;;;;;;14.91;61.44;100530.99;1726447;82;20182;-60
2022/06/08 02:08:05;;;;;;;;;;;;;;;14.94;61.61;100525.94;1726291;82;20250;-59
2022/06/08 02:11:21;;;;;;;;;;;;;;;14.97;61.74;100524.67;1693904;83;20644;-59
2022/06/08 02:14:39;;;;;;;;;;;;;;;15.00;61.81;100523.75;1672722;85;20259;-60
2022/06/08 02:17:48;;;;;;;;;;;;;;;15.00;61.73;100529.78;1694340;84;20192;-60
2022/06/08 02:20:58;;;;;;;;;;;;;;;15.02;61.72;100531.81;1687932;85;20598;-59
2022/06/08 02:24:06;;;;;;;;;;;;;;;15.01;61.67;100537.02;1715258;83;20523;-61
2022/06/08 02:27:14;;;;;;;;;;;;;;;15.03;61.76;100533.00;1727014;82;20269;-60
2022/06/08 02:30:27;;;;;;;;;;;;;;;15.08;61.88;100535.14;1727874;82;20198;-60
2022/06/08 02:37:18;;;;;;;;;;;;;;;15.13;61.82;100532.64;1693972;84;20216;-60
2022/06/08 02:40:29;;;;;;;;;;;;;;;15.17;61.91;100532.58;1665942;84;20208;-61
2022/06/08 02:43:37;;;;;;;;;;;;;;;15.26;62.03;100531.87;1714667;81;20242;-62
2022/06/08 02:47:09;;;;;;;;;;;;;;;15.34;62.09;100537.23;1713385;83;20250;-60
2022/06/08 02:50:26;;;;;;;;;;;;;;;15.43;62.21;100538.28;1695425;82;20189;-59
2022/06/08 02:53:37;;;;;;;;;;;;;;;15.56;62.40;100538.36;1655516;86;20212;-58
2022/06/08 02:56:59;;;;;;;;;;;;;;;15.69;62.49;100536.20;1715675;83;20259;-60
2022/06/08 03:00:09;;;;;;;;;;;;;;;15.82;62.58;100535.74;1682327;85;20531;-60
2022/06/08 03:03:20;;;;;;;;;;;;;;;15.96;62.61;100538.02;1682358;85;20237;-60
2022/06/08 03:06:32;;;;;;;;;;;;;;;16.06;62.56;100537.94;1717153;83;20216;-60
2022/06/08 03:09:42;;;;;;;;;;;;;;;16.16;62.60;100538.41;1681685;85;20186;-59
2022/06/08 03:12:42;;;;;;;;;;;;;;;16.27;62.57;100536.93;1681784;85;20249;-59
2022/06/08 03:15:34;;;;;;;;;;;;;;;16.39;62.68;100531.13;1716522;83;20212;-59
2022/06/08 03:18:19;;;;;;;;;;;;;;;16.53;62.70;100538.94;1665126;85;20610;-60
2022/06/08 03:21:12;;;;;;;;;;;;;;;16.66;62.68;100538.95;1716668;83;20204;-59
2022/06/08 03:24:19;;;;;;;;;;;;;;;16.75;62.60;100530.24;1717059;83;20524;-55
2022/06/08 03:27:26;;;;;;;;;;;;;;;16.86;62.55;100537.04;1762771;80;20188;-57
2022/06/08 03:30:33;;;;;;;;;;;;;;;16.95;62.57;100534.41;1799963;79;20195;-57
2022/06/08 03:33:38;;;;;;;;;;;;;;;17.03;62.51;100531.42;1780564;80;20210;-56
2022/06/08 03:36:46;;;;;;;;;;;;;;;17.12;62.52;100536.52;1798432;80;20216;-56
2022/06/08 03:39:53;;;;;;;;;;;;;;;17.25;62.51;100531.50;1798293;80;20648;-56
2022/06/08 03:42:58;;;;;;;;;;;;;;;17.36;62.52;100532.22;1798465;79;20221;-55
2022/06/08 03:46:06;;;;;;;;;;;;;;;17.47;62.54;100532.98;1798298;80;20196;-57
2022/06/08 03:49:12;;;;;;;;;;;;;;;17.59;62.49;100537.63;1798375;80;20221;-56
2022/06/08 03:52:20;;;;;;;;;;;;;;;17.71;62.49;100537.81;1798381;80;20241;-55
2022/06/08 03:55:25;;;;;;;;;;;;;;;17.83;62.46;100538.82;1798425;80;20182;-55
2022/06/08 03:58:31;;;;;;;;;;;;;;;17.96;62.44;100542.06;1798377;79;20534;-56
2022/06/08 04:01:39;;;;;;;;;;;;;;;18.09;62.43;100543.40;1803092;79;20236;-56
2022/06/08 04:04:45;;;;;;;;;;;;;;;18.21;62.41;100532.78;1806566;79;20220;-57
2022/06/08 04:07:51;;;;;;;;;;;;;;;18.34;62.36;100536.02;1806563;79;20208;-56
2022/06/08 04:10:59;;;;;;;;;;;;;;;18.46;62.35;100536.49;1805881;79;20517;-55
2022/06/08 04:14:07;;;;;;;;;;;;;;;18.59;62.34;100539.71;1806302;79;20200;-56
2022/06/08 04:17:14;;;;;;;;;;;;;;;18.72;62.30;100539.09;1806022;79;20508;-57
2022/06/08 04:20:20;;;;;;;;;;;;;;;18.85;62.25;100536.75;1806397;79;20232;-55
2022/06/08 04:23:26;;;;;;;;;;;;;;;18.97;62.23;100534.41;1806698;79;20200;-55
2022/06/08 04:26:32;;;;;;;;;;;;;;;19.10;62.18;100538.46;1806576;78;20203;-56
2022/06/08 04:29:43;;;;;;;;;;;;;;;19.22;62.15;100538.02;1809075;78;20211;-57
2022/06/08 04:32:51;;;;;;;;;;;;;;;19.33;62.10;100540.08;1830211;78;20192;-55
2022/06/08 04:35:57;;;;;;;;;;;;;;;19.47;62.03;100539.95;1830554;78;20254;-56
2022/06/08 04:39:09;;;;;;;;;;;;;;;19.59;61.98;100542.26;1820809;78;20294;-57
2022/06/08 04:42:26;;;;;;;;;;;;;;;19.70;61.96;100540.96;1830523;78;20283;-55
2022/06/08 04:45:35;;;;;;;;;;;;;;;19.84;61.90;100545.81;1830321;78;20184;-55
2022/06/08 04:48:42;;;;;;;;;;;;;;;19.95;61.84;100548.67;1830140;77;20988;-55
2022/06/08 04:51:45;;;;;;;;;;;;;;;20.09;61.78;100549.37;1830413;78;20258;-56
2022/06/08 04:54:49;;;;;;;;;;;;;;;20.21;61.75;100548.91;1829365;78;20531;-56
2022/06/08 04:57:55;;;;;;;;;;;;;;;20.34;61.67;100554.30;1829895;77;20207;-56
2022/06/08 05:01:00;;;;;;;;;;;;;;;20.46;61.64;100545.45;1830551;78;20646;-54
2022/06/08 05:04:09;;;;;;;;;;;;;;;20.61;61.63;100554.23;1760515;80;20239;-53
2022/06/08 05:07:15;;;;;;;;;;;;;;;20.77;61.63;100546.60;1762760;80;20243;-54
2022/06/08 05:10:20;;;;;;;;;;;;;;;20.97;61.61;100550.47;1770162;79;20212;-54
2022/06/08 05:13:27;;;;;;;;;;;;;;;21.16;61.52;100545.11;1833177;78;20300;-53
2022/06/08 05:16:34;;;;;;;;;;;;;;;21.35;61.44;100541.13;1823806;78;20179;-54
2022/06/08 05:19:41;;;;;;;;;;;;;;;21.51;61.40;100538.47;1813298;78;20207;-53
2022/06/08 05:22:48;;;;;;;;;;;;;;;21.70;61.25;100542.82;1755659;81;20176;-54
2022/06/08 05:25:53;;;;;;;;;;;;;;;21.88;61.11;100553.01;1749783;80;20271;-57
2022/06/08 05:29:04;;;;;;;;;;;;;;;22.07;61.00;100547.56;1831036;77;20208;-57
2022/06/08 05:32:14;;;;;;;;;;;;;;;22.27;60.92;100548.52;1838361;77;20258;-56
2022/06/08 05:35:21;;;;;;;;;;;;;;;22.52;60.78;100540.68;1814335;77;20314;-57
2022/06/08 05:38:30;;;;;;;;;;;;;;;22.78;60.57;100551.23;1825193;78;20209;-57
2022/06/08 05:41:38;;;;;;;;;;;;;;;22.91;60.32;100553.15;1816316;78;20231;-57
2022/06/08 05:44:42;;;;;;;;;;;;;;;23.01;60.19;100542.70;1826198;77;20212;-57
2022/06/08 05:47:47;;;;;;;;;;;;;;;23.14;60.03;100545.17;1816385;77;20555;-58
2022/06/08 05:50:56;;;;;;;;;;;;;;;23.18;59.85;100540.22;1827508;77;20223;-59
2022/06/08 05:54:04;;;;;;;;;;;;;;;23.29;59.74;100546.88;1825251;77;20325;-58
2022/06/08 05:57:12;;;;;;;;;;;;;;;23.42;59.65;100550.15;1801578;77;20547;-56
2022/06/08 06:00:25;;;;;;;;;;;;;;;23.55;59.44;100538.63;1825105;77;20706;-58
2022/06/08 06:03:37;;;;;;;;;;;;;;;23.66;59.27;100542.40;1817428;77;20528;-57
2022/06/08 06:06:46;;;;;;;;;;;;;;;23.74;59.11;100545.33;1756850;80;20242;-57
2022/06/08 06:09:55;;;;;;;;;;;;;;;23.80;58.96;100535.33;1702198;82;20238;-57
2022/06/08 06:13:04;;;;;;;;;;;;;;;23.87;58.85;100534.60;1818386;77;20360;-58
2022/06/08 06:16:11;;;;;;;;;;;;;;;23.94;58.71;100537.22;1825720;77;20211;-57
2022/06/08 06:19:19;;;;;;;;;;;;;;;23.99;58.62;100533.13;1758496;81;20251;-58
2022/06/08 06:22:32;;;;;;;;;;;;;;;24.04;58.49;100535.42;1823460;77;20226;-53
2022/06/08 06:25:53;;;;;;;;;;;;;;;24.11;58.41;100532.43;1816833;77;20788;-58
2022/06/08 06:29:13;;;;;;;;;;;;;;;24.18;58.28;100529.72;1821543;78;20230;-57
2022/06/08 06:32:37;;;;;;;;;;;;;;;24.26;58.09;100528.44;1828248;78;20199;-56
2022/06/08 06:35:44;;;;;;;;;;;;;;;24.33;57.95;100530.46;1827642;77;20274;-56
2022/06/08 06:38:52;;;;;;;;;;;;;;;24.39;57.89;100528.86;1827073;78;20199;-57
2022/06/08 06:41:59;;;;;;;;;;;;;;;24.47;57.75;100524.20;1815789;77;20203;-56
2022/06/08 06:45:08;;;;;;;;;;;;;;;24.57;57.72;100520.66;1823547;77;20635;-56
2022/06/08 06:48:25;;;;;;;;;;;;;;;24.64;57.56;100526.34;1819573;77;20294;-56
2022/06/08 06:51:41;;;;;;;;;;;;;;;24.69;57.35;100525.02;1825839;77;20250;-57
2022/06/08 06:54:49;;;;;;;;;;;;;;;24.75;57.18;100521.73;1828029;77;20319;-58
2022/06/08 06:57:57;;;;;;;;;;;;;;;24.83;57.07;100515.66;1811077;77;20227;-56
2022/06/08 07:01:03;;;;;;;;;;;;;;;24.91;56.88;100517.40;1750566;80;20538;-58
2022/06/08 07:04:08;;;;;;;;;;;;;;;24.97;56.67;100514.92;1821394;77;20200;-58
2022/06/08 07:07:17;;;;;;;;;;;;;;;25.03;56.48;100520.89;1821784;77;20215;-57
2022/06/08 07:10:23;;;;;;;;;;;;;;;25.10;56.32;100513.66;1755216;80;20212;-58
2022/06/08 07:13:41;;;;;;;;;;;;;;;25.17;56.17;100508.66;1758443;80;20217;-57
2022/06/08 07:16:51;;;;;;;;;;;;;;;25.27;55.96;100510.15;1746984;81;20216;-58
2022/06/08 07:20:00;;;;;;;;;;;;;;;25.33;55.71;100516.08;1766762;81;20643;-57
2022/06/08 07:23:07;;;;;;;;;;;;;;;25.38;55.46;100506.34;1829507;78;20202;-66
2022/06/08 07:26:15;;;;;;;;;;;;;;;25.44;55.27;100510.00;1827787;78;20246;-64
2022/06/08 07:29:19;;;;;;;;;;;;;;;25.51;55.13;100505.02;1759492;80;20196;-64
2022/06/08 07:32:26;;;;;;;;;;;;;;;25.59;54.97;100503.97;1759371;80;20216;-64
2022/06/08 07:35:32;;;;;;;;;;;;;;;25.65;54.71;100507.08;1759951;80;20263;-66
2022/06/08 07:38:38;;;;;;;;;;;;;;;25.72;54.53;100497.84;1676081;82;20260;-65
2022/06/08 07:41:50;;;;;;;;;;;;;;;25.78;54.35;100495.34;1714322;82;20549;-63
2022/06/08 07:44:58;;;;;;;;;;;;;;;25.88;54.21;100497.36;1758822;79;20228;-66
2022/06/08 07:51:32;;;;;;;;;;;;;;;26.10;53.78;100493.30;1754617;81;20239;-64
2022/06/08 07:54:38;;;;;;;;;;;;;;;26.20;53.53;100498.95;1756799;81;20247;-65
2022/06/08 07:57:42;;;;;;;;;;;;;;;26.32;53.40;100493.93;1751595;80;20251;-65
2022/06/08 08:00:50;;;;;;;;;;;;;;;26.50;53.23;100491.75;1753392;80;20291;-64
2022/06/08 08:03:55;;;;;;;;;;;;;;;26.69;53.08;100490.95;1780222;80;20217;-63
2022/06/08 08:07:00;;;;;;;;;;;;;;;26.89;52.80;100492.41;1756334;80;20244;-57
2022/06/08 08:10:06;;;;;;;;;;;;;;;27.04;52.40;100480.30;1744907;81;20256;-57
2022/06/08 08:13:11;;;;;;;;;;;;;;;27.18;52.08;100482.27;1749193;80;20271;-57
2022/06/08 08:16:17;;;;;;;;;;;;;;;27.32;51.71;100484.81;1758258;80;20216;-55
2022/06/08 08:19:29;;;;;;;;;;;;;;;27.44;51.35;100478.89;1755502;81;20233;-58
2022/06/08 08:22:49;;;;;;;;;;;;;;;27.52;51.05;100476.91;1755390;80;20244;-57
2022/06/08 08:25:56;;;;;;;;;;;;;;;27.60;50.74;100477.19;1758516;80;20526;-55
2022/06/08 08:29:07;;;;;;;;;;;;;;;27.64;50.38;100478.28;1753467;80;20248;-55
2022/06/08 08:32:14;;;;;;;;;;;;;;;27.66;50.00;100470.96;1776904;78;20643;-58
2022/06/08 08:35:21;;;;;;;;;;;;;;;27.66;49.71;100469.00;1857066;75;20271;-54
2022/06/08 08:38:31;;;;;;;;;;;;;;;27.71;49.44;100464.77;1823454;78;20525;-56
2022/06/08 08:45:11;;;;;;;;;;;;;;;27.79;49.04;100459.11;1833410;78;20603;-57
2022/06/08 08:48:22;;;;;;;;;;;;;;;27.63;48.87;100461.14;1794196;79;20209;-59
2022/06/08 08:51:43;;;;;;;;;;;;;;;27.56;48.83;100464.80;1810208;77;20211;-57
2022/06/08 08:54:53;;;;;;;;;;;;;;;27.62;48.70;100452.98;1826277;78;20377;-57
2022/06/08 08:58:19;;;;;;;;;;;;;;;27.78;48.72;100451.81;1822349;78;20223;-56
2022/06/08 09:01:31;;;;;;;;;;;;;;;27.97;48.58;100455.70;1812433;77;20230;-57
2022/06/08 09:04:47;;;;;;;;;;;;;;;28.13;48.37;100449.43;1808626;78;20191;-58
2022/06/08 09:07:52;;;;;;;;;;;;;;;28.26;48.13;100445.40;1813947;78;20488;-60
2022/06/08 09:10:59;;;;;;;;;;;;;;;28.42;47.82;100449.81;1806790;78;20200;-57
2022/06/08 09:14:15;;;;;;;;;;;;;;;28.56;47.51;100448.05;1807112;79;20246;-59
2022/06/08 09:17:27;;;;;;;;;;;;;;;28.64;47.10;100437.58;1799810;79;20563;-59
2022/06/08 09:20:43;;;;;;;;;;;;;;;28.53;46.75;100439.34;1807558;79;20203;-60
2022/06/08 09:23:50;;;;;;;;;;;;;;;28.42;46.55;100437.69;1807577;79;20203;-56
2022/06/08 09:26:58;;;;;;;;;;;;;;;28.35;46.40;100446.47;1820119;77;20242;-56
2022/06/08 09:30:24;;;;;;;;;;;;;;;28.44;46.14;100439.66;1791221;78;20519;-55
2022/06/08 09:33:36;;;;;;;;;;;;;;;28.61;45.87;100432.53;1800468;78;20680;-55
2022/06/08 09:36:42;;;;;;;;;;;;;;;28.82;45.58;100436.88;1777108;81;20185;-56
2022/06/08 09:39:49;;;;;;;;;;;;;;;28.97;45.33;100430.28;1775741;81;20558;-57
2022/06/08 09:42:57;;;;;;;;;;;;;;;29.15;45.15;100430.41;1745393;82;20607;-55
2022/06/08 09:46:23;;;;;;;;;;;;;;;29.31;44.96;100429.68;1745150;82;20272;-56
2022/06/08 09:53:10;;;;;;;;;;;;;;;29.43;44.27;100421.64;1764422;81;20609;-56
2022/06/08 09:56:27;;;;;;;;;;;;;;;29.34;43.96;100424.00;1739687;81;20215;-56
2022/06/08 09:59:56;;;;;;;;;;;;;;;29.30;43.73;100419.55;1775505;81;20561;-57
2022/06/08 10:03:28;;;;;;;;;;;;;;;29.45;43.61;100417.95;1764382;81;20209;-56
2022/06/08 10:06:49;;;;;;;;;;;;;;;29.71;43.56;100403.86;1775186;81;20515;-55
2022/06/08 10:10:00;;;;;;;;;;;;;;;30.01;43.35;100408.27;1775845;79;20214;-55
2022/06/08 10:13:07;;;;;;;;;;;;;;;30.22;43.12;100407.70;1703419;83;20226;-54
2022/06/08 10:16:21;;;;;;;;;;;;;;;30.45;42.91;100401.14;1750132;81;20615;-55
2022/06/08 10:19:29;;;;;;;;;;;;;;;30.63;42.71;100408.78;1760581;81;20837;-54
2022/06/08 10:22:37;;;;;;;;;;;;;;;30.90;42.62;100408.64;1744880;82;20212;-56
2022/06/08 10:26:01;;;;;;;;;;;;;;;31.04;42.19;100402.45;1768152;81;20217;-55
2022/06/08 10:29:46;;;;;;;;;;;;;;;30.96;41.89;100397.50;1774593;81;20201;-57
2022/06/08 10:33:07;;;;;;;;;;;;;;;30.99;41.71;100394.05;1775283;81;20460;-54
2022/06/08 10:36:17;;;;;;;;;;;;;;;30.89;41.39;100394.25;1769504;77;20239;-54
2022/06/08 10:39:22;;;;;;;;;;;;;;;30.78;41.30;100399.81;1808543;79;20611;-55
2022/06/08 10:42:41;;;;;;;;;;;;;;;30.74;41.19;100389.66;1809003;79;20560;-54
2022/06/08 10:45:50;;;;;;;;;;;;;;;30.59;41.16;100396.40;1809589;79;20251;-56
2022/06/08 10:48:56;;;;;;;;;;;;;;;30.47;41.12;100393.21;1794803;77;20213;-56
2022/06/08 10:52:28;;;;;;;;;;;;;;;30.46;40.98;100392.11;1815077;77;20189;-56
2022/06/08 10:55:39;;;;;;;;;;;;;;;30.34;40.80;100397.36;1808845;77;20666;-56
2022/06/08 10:58:49;;;;;;;;;;;;;;;30.54;40.83;100392.23;1809526;79;20211;-57
2022/06/08 11:02:21;;;;;;;;;;;;;;;30.57;40.59;100390.20;1807598;78;20207;-56
2022/06/08 11:05:41;;;;;;;;;;;;;;;30.47;40.34;100391.80;1809048;77;20203;-56
2022/06/08 11:08:59;;;;;;;;;;;;;;;30.46;40.29;100384.45;1776912;81;20217;-59
2022/06/08 11:12:14;;;;;;;;;;;;;;;30.56;40.22;100382.03;1809486;77;20610;-58
2022/06/08 11:15:42;;;;;;;;;;;;;;;30.67;40.19;100378.48;1828899;78;20201;-57
2022/06/08 11:18:57;;;;;;;;;;;;;;;30.87;40.25;100373.35;1776548;80;20217;-59
2022/06/08 11:22:07;;;;;;;;;;;;;;;31.09;40.03;100375.48;1787792;80;20248;-59
2022/06/08 11:25:16;;;;;;;;;;;;;;;31.24;39.83;100368.96;1776031;81;20928;-59
2022/06/08 11:28:48;;;;;;;;;;;;;;;31.39;39.59;100372.11;1787556;80;20209;-59
2022/06/08 11:31:52;;;;;;;;;;;;;;;31.49;39.35;100371.91;1792487;77;20203;-60
2022/06/08 11:35:08;;;;;;;;;;;;;;;31.55;39.10;100364.98;1779769;79;20214;-56
2022/06/08 11:38:27;;;;;;;;;;;;;;;31.56;38.88;100366.66;1813517;78;20858;-55
2022/06/08 11:41:45;;;;;;;;;;;;;;;31.60;38.78;100362.87;1819421;78;20563;-55
2022/06/08 11:44:53;;;;;;;;;;;;;;;31.69;38.64;100368.65;1826263;77;20552;-55
2022/06/08 11:48:13;;;;;;;;;;;;;;;31.70;38.45;100361.25;1824479;77;20239;-56
2022/06/08 11:51:39;;;;;;;;;;;;;;;31.68;38.27;100359.91;1824406;77;20529;-61
2022/06/08 11:54:45;;;;;;;;;;;;;;;31.68;38.11;100358.48;1828805;77;20223;-59
2022/06/08 11:57:56;;;;;;;;;;;;;;;31.66;37.78;100348.90;1729568;82;20258;-57
2022/06/08 12:01:06;;;;;;;;;;;;;;;31.56;37.57;100346.27;1704774;83;20224;-58
2022/06/08 12:04:16;;;;;;;;;;;;;;;31.41;37.38;100343.73;1738503;81;20258;-58
2022/06/08 12:07:36;;;;;;;;;;;;;;;31.20;37.16;100351.52;1741693;81;20543;-59
2022/06/08 12:10:42;;;;;;;;;;;;;;;31.01;37.17;100340.28;1831649;77;20558;-58
2022/06/08 12:13:52;;;;;;;;;;;;;;;31.03;37.15;100344.21;1825872;77;20203;-57
2022/06/08 12:17:17;;;;;;;;;;;;;;;31.08;37.07;100337.05;1823872;78;20619;-59
2022/06/08 12:20:31;;;;;;;;;;;;;;;31.16;36.92;100339.97;1827701;77;20212;-55
2022/06/08 12:23:45;;;;;;;;;;;;;;;31.28;36.88;100334.66;1759904;81;20342;-57
2022/06/08 12:27:04;;;;;;;;;;;;;;;31.40;36.73;100336.41;1741565;82;20219;-57
2022/06/08 12:30:29;;;;;;;;;;;;;;;31.35;36.60;100334.28;1826722;78;20698;-57
2022/06/08 12:33:37;;;;;;;;;;;;;;;31.20;36.49;100335.95;1827462;78;20283;-57
2022/06/08 12:36:44;;;;;;;;;;;;;;;31.03;36.40;100324.41;1741557;79;20606;-58
2022/06/08 12:39:48;;;;;;;;;;;;;;;30.89;36.31;100327.20;1792049;80;20516;-58
2022/06/08 12:42:58;;;;;;;;;;;;;;;30.92;36.37;100327.17;1795838;80;20205;-58
2022/06/08 12:46:24;;;;;;;;;;;;;;;30.99;36.27;100320.52;1794993;80;20198;-57
2022/06/08 12:49:32;;;;;;;;;;;;;;;31.05;36.20;100315.86;1794585;80;20225;-56
2022/06/08 12:52:40;;;;;;;;;;;;;;;31.14;36.13;100317.41;1788220;79;20206;-60
2022/06/08 12:55:47;;;;;;;;;;;;;;;31.02;35.86;100305.18;1761998;80;20431;-58
2022/06/08 12:58:55;;;;;;;;;;;;;;;30.94;35.94;100298.83;1774153;80;20214;-58
2022/06/08 13:02:03;;;;;;;;;;;;;;;30.86;35.95;100308.03;1780311;80;20271;-57
2022/06/08 13:05:10;;;;;;;;;;;;;;;30.72;35.91;100308.55;1776234;81;20201;-59
2022/06/08 13:08:20;;;;;;;;;;;;;;;30.58;35.89;100307.67;1757399;81;20214;-59
2022/06/08 13:11:29;;;;;;;;;;;;;;;30.41;35.76;100303.98;1774820;80;20794;-58
2022/06/08 13:14:37;;;;;;;;;;;;;;;30.28;35.77;100301.98;1782068;79;20593;-58
2022/06/08 13:17:42;;;;;;;;;;;;;;;30.19;35.74;100300.94;1776844;79;20213;-57
2022/06/08 13:20:46;;;;;;;;;;;;;;;30.15;35.66;100305.53;1769735;79;20225;-59
2022/06/08 13:23:53;;;;;;;;;;;;;;;30.11;35.67;100304.45;1769544;81;20213;-58
2022/06/08 13:27:00;;;;;;;;;;;;;;;30.22;35.71;100297.53;1770268;81;20194;-59
2022/06/08 13:30:06;;;;;;;;;;;;;;;30.42;35.59;100300.04;1770324;81;20561;-58
2022/06/08 13:33:56;;;;;;;;;;;;;;;30.55;35.48;100288.52;1786224;79;20205;-59
2022/06/08 13:36:27;;;;;;;;;;;;;;;30.68;35.43;100291.11;1797697;76;20261;-57
2022/06/08 13:39:41;;;;;;;;;;;;;;;30.76;35.39;100297.46;1775858;80;20273;-58
2022/06/08 13:42:48;;;;;;;;;;;;;;;30.77;35.38;100287.28;1776073;81;20565;-58
2022/06/08 13:45:54;;;;;;;;;;;;;;;30.64;35.30;100290.31;1775366;81;20641;-59
2022/06/08 13:49:02;;;;;;;;;;;;;;;30.51;35.22;100289.70;1776033;81;20642;-58
2022/06/08 13:52:08;;;;;;;;;;;;;;;30.38;35.20;100290.48;1775822;81;20217;-58
2022/06/08 13:55:27;;;;;;;;;;;;;;;30.31;35.20;100292.03;1775816;81;20218;-58
2022/06/08 13:58:37;;;;;;;;;;;;;;;30.23;35.16;100289.34;1738954;82;20219;-58
2022/06/08 14:01:42;;;;;;;;;;;;;;;30.15;35.13;100287.74;1776202;81;20296;-58
2022/06/08 14:04:48;;;;;;;;;;;;;;;29.97;35.04;100291.44;1766158;81;20193;-57
2022/06/08 14:14:46;;;;;;;;;;;;;;;29.54;35.04;100286.95;1770941;81;20230;-58
2022/06/08 14:17:51;;;;;;;;;;;;;;;29.39;35.05;100280.92;1744074;81;20204;-58
2022/06/08 14:20:58;;;;;;;;;;;;;;;29.31;35.11;100275.95;1775375;81;20593;-58
2022/06/08 14:24:04;;;;;;;;;;;;;;;29.40;35.07;100270.49;1776618;81;20210;-59
2022/06/08 14:27:10;;;;;;;;;;;;;;;29.49;35.06;100270.92;1776797;79;20241;-60
2022/06/08 14:30:18;;;;;;;;;;;;;;;29.61;35.09;100269.90;1713152;82;20225;-60
2022/06/08 14:33:27;;;;;;;;;;;;;;;29.75;35.07;100260.16;1769146;81;20234;-60
2022/06/08 14:36:31;;;;;;;;;;;;;;;29.87;34.98;100256.29;1768865;81;20206;-60
2022/06/08 14:39:42;;;;;;;;;;;;;;;29.96;34.93;100253.03;1791980;78;20242;-60
2022/06/08 14:42:49;;;;;;;;;;;;;;;29.98;34.79;100255.83;1742526;82;20220;-60
2022/06/08 14:45:56;;;;;;;;;;;;;;;29.96;34.73;100245.41;1742113;82;20309;-59
2022/06/08 14:49:03;;;;;;;;;;;;;;;30.01;34.77;100248.16;1743148;82;20211;-60
2022/06/08 14:52:09;;;;;;;;;;;;;;;30.15;34.74;100246.22;1770451;81;20249;-59
2022/06/08 14:58:39;;;;;;;;;;;;;;;30.40;34.56;100250.62;1783474;79;20210;-59
2022/06/08 15:01:44;;;;;;;;;;;;;;;30.44;34.55;100251.13;1769945;79;20214;-60
2022/06/08 15:04:50;;;;;;;;;;;;;;;30.48;34.60;100243.69;1777640;79;20561;-59
2022/06/08 15:07:55;;;;;;;;;;;;;;;30.43;34.57;100244.34;1786086;79;20252;-58
2022/06/08 15:14:44;;;;;;;;;;;;;;;30.45;34.50;100242.05;1753327;80;20579;-59
2022/06/08 15:17:52;;;;;;;;;;;;;;;30.40;34.45;100247.23;1788583;79;20244;-59
2022/06/08 15:20:59;;;;;;;;;;;;;;;30.39;34.44;100244.71;1840208;77;20334;-59
2022/06/08 15:24:03;;;;;;;;;;;;;;;30.39;34.45;100242.73;1819122;78;20274;-58
2022/06/08 15:27:12;;;;;;;;;;;;;;;30.39;34.43;100239.06;1860350;77;20298;-62
2022/06/08 15:30:38;;;;;;;;;;;;;;;30.38;34.45;100243.05;1887781;75;20612;-60
2022/06/08 15:33:45;;;;;;;;;;;;;;;30.22;34.37;100239.63;1662191;85;20220;-59
2022/06/08 15:36:52;;;;;;;;;;;;;;;30.04;34.43;100248.95;1686957;85;20266;-60
2022/06/08 15:40:00;;;;;;;;;;;;;;;30.04;34.44;100237.66;1670374;83;20251;-60
2022/06/08 15:43:14;;;;;;;;;;;;;;;30.25;34.48;100243.84;1682181;83;20570;-60
2022/06/08 15:46:20;;;;;;;;;;;;;;;30.98;34.12;100238.25;1672590;84;20208;-59
2022/06/08 15:49:26;;;;;;;;;;;;;;;31.36;33.68;100236.91;1685691;83;20210;-60
2022/06/08 15:52:33;;;;;;;;;;;;;;;31.40;33.65;100238.78;1685253;85;20549;-59
2022/06/08 15:55:38;;;;;;;;;;;;;;;31.51;33.55;100237.96;1686673;85;20234;-59
2022/06/08 15:58:44;;;;;;;;;;;;;;;31.60;33.47;100238.91;1677697;83;20218;-60
2022/06/08 16:01:51;;;;;;;;;;;;;;;31.66;33.43;100237.63;1691719;83;20259;-59
2022/06/08 16:04:56;;;;;;;;;;;;;;;31.87;33.21;100233.20;1677789;85;20254;-59
2022/06/08 16:08:03;;;;;;;;;;;;;;;31.88;33.07;100243.37;1678240;84;20624;-60
2022/06/08 16:11:11;;;;;;;;;;;;;;;31.73;33.05;100245.94;1678576;85;20214;-59
2022/06/08 16:14:17;;;;;;;;;;;;;;;31.48;33.18;100246.52;1678750;85;20578;-60
2022/06/08 16:17:21;;;;;;;;;;;;;;;31.24;33.34;100246.48;1677354;83;20237;-60
2022/06/08 16:20:28;;;;;;;;;;;;;;;31.00;33.41;100245.85;1690068;83;20277;-59
2022/06/08 16:23:33;;;;;;;;;;;;;;;30.78;33.43;100247.96;1680563;85;20219;-59
2022/06/08 16:26:39;;;;;;;;;;;;;;;30.60;33.48;100241.20;1688423;83;20576;-59
2022/06/08 16:29:47;;;;;;;;;;;;;;;30.39;33.50;100239.06;1703102;83;20204;-59
2022/06/08 16:32:52;;;;;;;;;;;;;;;30.13;33.58;100237.77;1718061;82;20241;-59
2022/06/08 16:35:56;;;;;;;;;;;;;;;29.84;33.65;100249.28;1743772;82;20578;-59
2022/06/08 16:39:03;;;;;;;;;;;;;;;29.55;33.74;100241.48;1734611;82;20311;-59
2022/06/08 16:42:08;;;;;;;;;;;;;;;29.30;33.90;100246.08;1740532;82;20210;-63
2022/06/08 16:45:13;;;;;;;;;;;;;;;29.07;34.17;100250.59;1734934;82;20570;-59